createdAt,value
2022-08-19T00:01:13.561Z,19.35
2022-08-19T00:06:18.896Z,19.24
2022-08-19T00:11:25.764Z,19.11
2022-08-19T00:16:31.269Z,19.13
2022-08-19T00:21:40.605Z,19.11
2022-08-19T00:26:45.676Z,19.21
2022-08-19T00:31:53.983Z,19.16
2022-08-19T00:36:58.395Z,19.13
2022-08-19T00:42:02.198Z,19.14
2022-08-19T00:47:07.639Z,19.17
2022-08-19T00:52:23.217Z,19.15
2022-08-19T00:57:32.852Z,19.05
2022-08-19T01:02:37.970Z,19.09
2022-08-19T01:07:43.176Z,19.28
2022-08-19T01:12:47.413Z,19.33
2022-08-19T01:17:53.975Z,19.25
2022-08-19T01:23:00.906Z,19.46
2022-08-19T01:28:09.228Z,19.61
2022-08-19T01:33:15.829Z,19.72
2022-08-19T01:38:26.562Z,19.71
2022-08-19T01:43:30.480Z,19.82
2022-08-19T01:48:39.522Z,19.71
2022-08-19T01:53:44.837Z,19.57
2022-08-19T01:58:54.300Z,19.70
2022-08-19T02:03:57.998Z,19.66
2022-08-19T02:09:03.371Z,19.66
2022-08-19T02:14:09.390Z,19.64
2022-08-19T02:19:13.085Z,19.71
2022-08-19T02:24:18.226Z,19.74
2022-08-19T02:29:22.011Z,19.62
2022-08-19T02:34:26.280Z,19.71
2022-08-19T02:39:31.200Z,19.67
2022-08-19T02:44:34.806Z,19.57
2022-08-19T02:49:38.521Z,19.70
2022-08-19T02:54:43.703Z,19.48
2022-08-19T02:59:47.336Z,19.46
2022-08-19T03:04:50.965Z,19.49
2022-08-19T03:09:55.943Z,19.18
2022-08-19T03:14:59.493Z,19.37
2022-08-19T03:20:03.434Z,19.15
2022-08-19T03:25:09.261Z,19.23
2022-08-19T03:30:14.387Z,19.29
2022-08-19T03:35:24.093Z,19.30
2022-08-19T03:40:31.055Z,19.05
2022-08-19T03:45:34.974Z,19.18
2022-08-19T03:50:41.215Z,19.05
2022-08-19T03:55:46.224Z,19.34
2022-08-19T04:00:50.074Z,18.92
2022-08-19T04:05:54.571Z,19.18
2022-08-19T04:10:59.517Z,19.09
2022-08-19T04:16:03.211Z,19.20
2022-08-19T04:21:07.602Z,19.27
2022-08-19T04:26:16.670Z,19.30
2022-08-19T04:31:22.587Z,19.38
2022-08-19T04:36:28.580Z,19.41
2022-08-19T04:41:51.206Z,19.28
2022-08-19T04:46:55.321Z,19.48
2022-08-19T04:51:59.049Z,19.58
2022-08-19T04:57:06.177Z,19.46
2022-08-19T05:02:11.028Z,19.40
2022-08-19T05:07:14.720Z,19.30
2022-08-19T05:12:20.123Z,19.51
2022-08-19T05:17:27.659Z,19.50
2022-08-19T05:22:35.762Z,19.40
2022-08-19T05:27:40.857Z,19.49
2022-08-19T05:32:45.003Z,19.39
2022-08-19T05:37:49.026Z,19.42
2022-08-19T05:42:57.899Z,19.53
2022-08-19T05:48:01.422Z,19.63
2022-08-19T05:53:05.219Z,19.45
2022-08-19T05:58:10.191Z,19.41
2022-08-19T06:03:13.852Z,19.55
2022-08-19T06:08:19.540Z,19.44
2022-08-19T06:13:25.516Z,19.33
2022-08-19T06:18:30.463Z,19.52
2022-08-19T06:23:35.920Z,19.52
2022-08-19T06:28:43.698Z,19.53
2022-08-19T06:33:47.439Z,19.64
2022-08-19T06:38:54.106Z,19.64
2022-08-19T06:43:59.534Z,19.41
2022-08-19T06:49:03.918Z,19.67
2022-08-19T06:54:19.183Z,19.74
2022-08-19T06:59:28.203Z,19.64
2022-08-19T07:04:34.849Z,19.68
2022-08-19T07:09:41.520Z,19.74
2022-08-19T07:14:50.415Z,19.67
2022-08-19T07:19:56.474Z,19.68
2022-08-19T07:25:01.825Z,19.61
2022-08-19T07:30:11.702Z,19.83
2022-08-19T07:35:16.630Z,19.66
2022-08-19T07:40:22.014Z,19.71
2022-08-19T07:45:30.211Z,19.47
2022-08-19T07:50:35.464Z,19.79
2022-08-19T07:55:43.927Z,19.56
2022-08-19T08:00:53.232Z,19.75
2022-08-19T08:06:15.026Z,19.55
2022-08-19T08:11:24.026Z,19.34
2022-08-19T08:16:32.590Z,19.59
2022-08-19T08:21:36.962Z,19.43
2022-08-19T08:26:46.840Z,19.52
2022-08-19T08:32:00.155Z,19.33
2022-08-19T08:37:04.651Z,19.45
2022-08-19T08:42:17.498Z,19.96
2022-08-19T08:47:25.342Z,19.86
2022-08-19T08:52:33.362Z,19.93
2022-08-19T08:57:43.701Z,19.45
2022-08-19T09:02:52.598Z,19.55
2022-08-19T09:08:06.006Z,19.82
2022-08-19T09:13:23.293Z,19.69
2022-08-19T09:18:29.759Z,19.82
2022-08-19T09:23:33.726Z,20.10
2022-08-19T09:28:40.262Z,20.16
2022-08-19T09:33:49.742Z,20.28
2022-08-19T09:38:55.913Z,20.24
2022-08-19T09:44:01.139Z,20.20
2022-08-19T09:49:07.445Z,20.49
2022-08-19T09:54:11.431Z,19.73
2022-08-19T09:59:15.298Z,20.24
2022-08-19T10:04:22.313Z,20.61
2022-08-19T10:09:34.364Z,20.77
2022-08-19T10:14:39.310Z,21.45
2022-08-19T10:19:55.373Z,21.95
2022-08-19T10:25:00.028Z,21.70
2022-08-19T10:30:04.172Z,22.14
2022-08-19T10:35:16.045Z,22.45
2022-08-19T10:40:25.926Z,22.63
2022-08-19T10:45:29.727Z,22.29
2022-08-19T10:50:52.324Z,22.55
2022-08-19T10:56:13.520Z,22.24
2022-08-19T11:01:17.394Z,22.56
2022-08-19T11:06:22.590Z,23.58
2022-08-19T11:11:26.339Z,23.51
2022-08-19T11:16:31.075Z,22.66
2022-08-19T11:21:38.803Z,22.55
2022-08-19T11:26:44.009Z,23.34
2022-08-19T11:31:50.387Z,22.73
2022-08-19T11:36:55.643Z,23.60
2022-08-19T11:42:02.035Z,23.26
2022-08-19T11:47:09.126Z,23.69
2022-08-19T11:52:14.636Z,23.31
2022-08-19T11:57:18.499Z,23.43
2022-08-19T12:02:22.681Z,22.99
2022-08-19T12:07:27.732Z,23.44
2022-08-19T12:12:31.282Z,24.40
2022-08-19T12:17:35.086Z,24.14
2022-08-19T12:22:40.401Z,24.47
2022-08-19T12:27:49.637Z,23.73
2022-08-19T12:32:56.268Z,23.50
2022-08-19T12:38:03.851Z,23.52
2022-08-19T12:43:07.818Z,23.77
2022-08-19T12:48:34.374Z,24.17
2022-08-19T12:53:39.264Z,24.03
2022-08-19T12:58:49.038Z,23.66
2022-08-19T13:03:55.626Z,24.51
2022-08-19T13:09:00.736Z,24.60
2022-08-19T13:14:06.898Z,23.72
2022-08-19T13:19:11.750Z,23.75
2022-08-19T13:24:16.672Z,23.39
2022-08-19T13:29:35.422Z,23.80
2022-08-19T13:34:39.363Z,23.89
2022-08-19T13:39:46.098Z,23.57
2022-08-19T13:44:49.840Z,24.23
2022-08-19T13:49:53.855Z,24.20
2022-08-19T13:54:59.743Z,24.35
2022-08-19T14:00:11.846Z,23.78
2022-08-19T14:05:17.728Z,23.79
2022-08-19T14:10:23.881Z,23.79
2022-08-19T14:15:29.148Z,24.14
2022-08-19T14:20:32.785Z,23.99
2022-08-19T14:25:37.974Z,23.97
2022-08-19T14:30:41.799Z,23.83
2022-08-19T14:35:46.081Z,23.85
2022-08-19T14:40:53.310Z,23.14
2022-08-19T14:45:58.432Z,23.69
2022-08-19T14:51:02.574Z,23.16
2022-08-19T14:56:11.820Z,23.64
2022-08-19T15:01:16.301Z,23.71
2022-08-19T15:06:19.947Z,23.61
2022-08-19T15:11:28.900Z,24.05
2022-08-19T15:16:32.461Z,24.23
2022-08-19T15:21:37.306Z,23.65
2022-08-19T15:26:43.755Z,23.66
2022-08-19T15:31:47.401Z,23.84
2022-08-19T15:36:53.055Z,24.00
2022-08-19T15:42:00.564Z,23.88
2022-08-19T15:47:05.328Z,24.14
2022-08-19T15:52:09.155Z,23.80
2022-08-19T15:57:31.497Z,23.97
2022-08-19T16:02:53.596Z,23.96
2022-08-19T16:07:57.710Z,24.12
2022-08-19T16:13:02.647Z,24.12
2022-08-19T16:18:06.314Z,23.81
2022-08-19T16:23:10.288Z,23.75
2022-08-19T16:28:15.475Z,23.94
2022-08-19T16:33:22.829Z,23.77
2022-08-19T16:38:27.672Z,23.98
2022-08-19T16:43:32.633Z,23.96
2022-08-19T16:48:43.049Z,23.98
2022-08-19T16:53:46.787Z,24.28
2022-08-19T16:58:51.880Z,23.96
2022-08-19T17:03:55.854Z,23.97
2022-08-19T17:09:01.192Z,24.03
2022-08-19T17:14:07.263Z,23.88
2022-08-19T17:19:10.778Z,23.53
2022-08-19T17:24:14.413Z,23.12
2022-08-19T17:29:19.213Z,22.91
2022-08-19T17:34:22.876Z,22.61
2022-08-19T17:39:26.475Z,22.59
2022-08-19T17:44:33.197Z,22.72
2022-08-19T17:49:37.554Z,22.40
2022-08-19T17:54:40.959Z,22.24
2022-08-19T17:59:46.076Z,22.07
2022-08-19T18:04:50.234Z,21.92
2022-08-19T18:09:54.987Z,21.73
2022-08-19T18:15:04.088Z,21.80
2022-08-19T18:20:12.383Z,21.32
2022-08-19T18:25:19.255Z,21.30
2022-08-19T18:30:25.938Z,21.30
2022-08-19T18:35:31.028Z,21.04
2022-08-19T18:41:03.926Z,20.76
2022-08-19T18:46:26.300Z,20.89
2022-08-19T18:51:34.795Z,20.78
2022-08-19T18:56:42.408Z,20.26
2022-08-19T19:01:50.794Z,20.36
2022-08-19T19:06:58.038Z,20.60
2022-08-19T19:12:04.388Z,20.53
2022-08-19T19:17:13.000Z,20.58
2022-08-19T19:22:19.930Z,20.59
2022-08-19T19:27:23.542Z,20.36
2022-08-19T19:32:36.978Z,20.05
2022-08-19T19:37:45.213Z,19.98
2022-08-19T19:42:49.075Z,19.83
2022-08-19T19:47:54.169Z,19.79
2022-08-19T19:52:58.576Z,19.92
2022-08-19T19:58:03.003Z,20.00
2022-08-19T20:03:09.447Z,19.60
2022-08-19T20:08:30.436Z,19.63
2022-08-19T20:13:35.726Z,19.58
2022-08-19T20:18:41.278Z,19.38
2022-08-19T20:23:45.060Z,19.48
2022-08-19T20:29:13.874Z,19.29
2022-08-19T20:34:34.812Z,19.18
2022-08-19T20:39:39.042Z,19.43
2022-08-19T20:44:42.556Z,19.05
2022-08-19T20:49:47.589Z,18.86
2022-08-19T20:54:51.228Z,18.93
2022-08-19T20:59:54.982Z,19.20
2022-08-19T21:05:00.270Z,19.33
2022-08-19T21:10:04.811Z,19.08
2022-08-19T21:15:09.346Z,19.11
2022-08-19T21:20:14.600Z,19.35
2022-08-19T21:25:19.236Z,19.42
2022-08-19T21:30:23.205Z,18.85
2022-08-19T21:35:28.958Z,18.81
2022-08-19T21:40:32.678Z,19.06
2022-08-19T21:45:36.455Z,19.03
2022-08-19T21:50:41.614Z,18.60
2022-08-19T21:55:52.771Z,18.66
2022-08-19T22:00:57.005Z,18.62
2022-08-19T22:06:02.057Z,18.73
2022-08-19T22:11:06.033Z,18.37
2022-08-19T22:16:11.384Z,18.36
2022-08-19T22:21:20.162Z,18.62
2022-08-19T22:26:40.995Z,18.78
2022-08-19T22:31:44.714Z,18.66
2022-08-19T22:36:49.774Z,18.66
2022-08-19T22:41:53.706Z,18.69
2022-08-19T22:46:57.275Z,18.32
2022-08-19T22:52:18.443Z,18.11
2022-08-19T22:57:23.453Z,18.46
2022-08-19T23:02:29.817Z,18.49
2022-08-19T23:07:35.266Z,18.16
2022-08-19T23:12:41.836Z,18.13
2022-08-19T23:17:45.643Z,18.26
2022-08-19T23:22:50.994Z,18.09
2022-08-19T23:28:12.385Z,17.92
2022-08-19T23:33:21.657Z,18.11
2022-08-19T23:38:32.322Z,18.23
2022-08-19T23:43:37.499Z,18.16
2022-08-19T23:48:42.960Z,18.26
2022-08-19T23:53:47.881Z,17.97
2022-08-19T23:58:51.470Z,17.81
